Logo AVAMET
Benvolgut visitant, si us plau, ingressa Recuperar contrasenya
AVAMET paisatges

Oriola R. de Bonanza

Dades diàries. Acumulats / Últims 30 dies disponibles

Data Temperatura (°C) Humitat rel. (%) Pressió rel. (hPa) Vent (km/h) Precipitació
Mínima Mitjana Màxima Amplitud
tèrmica
Mínima Mitjana Màxima Mínima Mitjana Màxima Predom. Mitjana Ràfega
màxima
Total
(mm)
Índex-n
Mínima Mitjana Màxima Mínima Mitjana Màxima n
0 a 1
P0 max
mm 5'
Dades mensuals acumulades fins l'últim dia disponible
05/2020 12,5 16,1 18,8 21,8 20,6 27,6 32,8 20,3 27 65 95 1.003 1.015 1.027   4,4 51,5 50,4
Dades anuals acumulades fins l'últim dia disponible
2020 2,3 11,3 18,8 16,1 10,5 21,5 32,8 30,5 20 70 97 1.003 1.019 1.036   4,2 70,8 302,6
Últims 30 dies disponibles
24-05-2020 17,9     22,8     26,8 8,9 41 61 81 1.025 1.026 1.027 SSE 6,3 32,2 0,0
23-05-2020 16,6     24,4     31,6 15,0 31 56 85 1.023 1.024 1.025 SSE 2,9 27,4 0,0
22-05-2020 17,6     24,1     32,4 14,8 40 66 92 1.021 1.022 1.025 S 3,6 27,4 0,0
21-05-2020 17,5     23,5     28,7 11,2 45 69 91 1.017 1.019 1.022 SSE 3,5 27,4 0,0
20-05-2020 17,1     23,7     31,1 14,0 42 67 93 1.014 1.015 1.017 SSE 2,7 25,7 0,0
19-05-2020 15,6     23,3     30,4 14,8 39 66 91 1.015 1.018 1.020 SSE 2,5 24,1 0,0
18-05-2020 14,8     21,4     28,6 13,8 41 69 95 1.018 1.020 1.023 S 2,8 27,4 0,2
17-05-2020 15,2     18,2     24,1 8,9 59 83 93 1.019 1.021 1.023 SSO 1,8 24,1 3,6
16-05-2020 13,3     17,8     23,8 10,5 52 79 91 1.013 1.016 1.020 SSO 2,5 37,0 10,2 0,24 2,60
15-05-2020 14,6     17,7     20,6 6,0 60 75 87 1.009 1.012 1.015 SSE 3,0 24,1 0,6 0,20
14-05-2020 12,5     17,5     23,2 10,7 50 72 92 1.003 1.006 1.010 S 6,0 45,1 33,6 0,69 12,80
13-05-2020 13,2     19,9     26,4 13,2 35 54 77 1.004 1.006 1.008 SSO 6,7 35,4 0,0
12-05-2020 16,8     20,5     24,2 7,4 44 63 75 1.006 1.008 1.011 SSE 4,8 32,2 0,0
11-05-2020 15,7     22,0     27,5 11,8 38 52 71 1.008 1.009 1.011 SSE 5,2 37,0 0,0
10-05-2020 17,4     20,8     26,2 8,8 33 58 89 1.005 1.007 1.009 SSO 9,1 51,5 2,2
09-05-2020 17,5     20,6     24,1 6,6 63 78 87 1.008 1.012 1.016 SSE 4,9 24,1 0,0
08-05-2020 16,7     20,9     25,3 8,6 55 69 83 1.013 1.015 1.017 SSE 5,8 30,6 0,0
07-05-2020 16,2     21,9     27,0 10,8 36 63 90 1.015 1.017 1.018 SE 6,1 37,0 0,0
06-05-2020 16,0     21,8     26,2 10,2 52 67 87 1.014 1.016 1.018 SSE 4,5 29,0 0,0
05-05-2020 16,7     23,6     31,2 14,5 33 58 79 1.012 1.014 1.015 SSE 3,0 27,4 0,0
04-05-2020 15,4     22,9     30,1 14,7 32 63 92 1.013 1.015 1.017 SSE 2,7 24,1 0,0
03-05-2020 15,9     23,1     28,8 12,9 42 64 87 1.015 1.017 1.019 SSE 3,8 29,0 0,0
02-05-2020 18,8     26,0     32,8 14,0 27 52 72 1.017 1.019 1.020 SSO 3,9 41,8 0,0
01-05-2020 16,6     23,8     30,4 13,8 38 52 70 1.016 1.018 1.020 SSO 7,0 37,0 0,0
30-04-2020 14,2     21,4     27,4 13,2 35 56 88 1.015 1.017 1.018 SSO 5,8 38,6 0,0
29-04-2020 14,3     20,6     25,6 11,3 36 50 68 1.016 1.018 1.020 S 6,3 37,0 0,0
28-04-2020 13,4     19,3     24,8 11,4 42 60 79 1.013 1.015 1.017 SSO 4,8 40,2 0,0
27-04-2020 14,0     19,4     24,9 10,9 47 70 96 1.010 1.012 1.013 S 5,0 40,2 0,2
26-04-2020 12,1     18,0     26,3 14,2 49 80 95 1.010 1.011 1.013 SSE 3,2 29,0 0,4
25-04-2020 13,6     15,0     16,8 3,2 61 84 92 1.009 1.010 1.014 SO 2,0 17,7 1,2 0,20
Últims 13 mesos disponibles
04/2020 8,8 12,7 18,1 16,8 16,8 21,5 27,4 18,6 50 74 87 1.006 1.016 1.025 SSE 4,3 54,7 40,4
03/2020 6,7 11,0 15,2 15,4 12,1 20,3 30,0 23,3 38 67 90 1.009 1.017 1.025 S 5,4 70,8 124,8
02/2020 4,9 9,6 14,2 15,0 15,7 21,6 26,6 21,7 42 72 86 1.015 1.026 1.033 S 3,1 54,7 2,2
01/2020 2,3 6,9 12,8 11,8 10,5 16,8 22,2 19,9 62 74 88 1.013 1.023 1.030 SO 3,7 64,4 84,8
12/2019 5,7 10,2 18,4 13,9 10,7 17,9 23,0 17,3 42 72 93 1.005 1.018 1.032 SO 4,1 75,6 43,6
11/2019 5,4 11,7 20,1 16,0 14,6 19,8 28,4 23,0 44 58 92 1.000 1.012 1.019 SSO 6,4 77,2 12,8
10/2019 10,4 15,5 21,1 20,5 16,9 26,4 34,6 24,2 45 70 86 1.009 1.017 1.022 S 2,8 58,0 26,8
09/2019 15,9 20,2 23,9 24,3 22,2 29,1 34,3 18,4 46 74 86 1.010 1.017 1.022 S 4,1 69,0 503,4
08/2019 19,1 22,2 25,2 27,3 28,8 33,2 41,8 22,7 47 69 79 1.011 1.016 1.020 SE 4,6 60,0 16,2
07/2019 20,4 22,6 26,4 27,9 29,4 33,6 39,8 19,4 36 60 75 1.006 1.014 1.020 SE 5,7 52,0 0,2
06/2019 13,4 18,0 22,7 24,2 24,2 30,1 35,9 22,5 38 59 73 1.009 1.015 1.022 SSE 5,6 50,0 0,6
05/2019 11,2 14,9 21,4 20,3 21,7 26,2 32,2 21,0 45 63 74 1.006 1.015 1.025 SSE 5,0 63,0 4,0
04/2019 8,6 12,0 15,0 16,4 14,6 21,5 28,8 20,2 44 64 89 1.000 1.013 1.025 S 5,6 69,0 127,2
Tots els anys disponibles
2019 4,1 15,0 26,4 20,0 10,7 25,5 41,8 37,7 34 65 93 997 1.017 1.033 SSE 4,7 77,2 761,8
Temperatura (°C)
Humitat relativa (%)
Velocitat del vent i ràfega màxima (km/h)
Direcció del vent (°)
Pressió (hPa)
Precipitació (mm)
Nota sobre les dades: s'avisa a l'usuari de la provisionalitat i no oficialitat d'aquestes dades
Logo AVAMET blanc
Web allotjada a Sollutia
Llicència de Creative CommonsLa web d'AVAMET i els seus continguts estan subjectes a una llicència de
Reconeixement - No Comercial - Compartir igual
Últimes estacions:  Chera (Ajuntament soci), Benifaió (Inforatge), Altea - Com. Regants (Soci) - - -